Latest Weather Observations for Launceston

IDT60801

Issued at 5:01 pm EST Saturday 18 April 2015 (issued every 30 minutes, with the page automatically refreshed every 10 minutes)

About weather observations | Map of weather stations | Latest weather observations for TAS | Other Formats
Station Details ID: 091237 Name: LAUNCESTON (TI TREE BEND) Lat: -41.42 Lon: 147.12 Height: 5.0 m
Data from the previous 72 hours. | See also: Recent months at Launceston
Date/Time
EST
Temp
°C
App
Temp
°C
Dew
Point
Rel
Hum
%
Delta-T
°C
Wind Press
QNH
hPa
Press
MSL
hPa
Rain
since 9 am
mm
Dir
 
Spd
km/h
Gust
km/h
Spd
kts
Gust
kts
18/05:00pm 14.9 12.5 12.8 87 1.2 NNW 17 28 9 15 - - 0.0
18/04:30pm 14.9 10.7 12.4 85 1.4 NNW 26 39 14 21 - - 0.0
18/04:00pm 15.2 12.4 12.5 84 1.5 NNW 19 35 10 19 - - 0.0
18/03:30pm 15.4 12.2 12.0 80 1.8 NNW 20 33 11 18 - - 0.0
18/03:00pm 16.1 11.1 11.1 72 2.7 NNW 28 41 15 22 - - 0.0
18/02:30pm 16.3 10.8 10.6 69 3.0 NNW 30 43 16 23 - - 0.0
18/02:00pm 16.8 12.2 10.9 68 3.2 NNW 26 39 14 21 - - 0.0
18/01:30pm 17.4 11.8 10.1 62 3.9 NNW 30 44 16 24 - - 0.0
18/01:00pm 17.5 12.2 9.7 60 4.1 NNW 28 43 15 23 - - 0.0
18/12:30pm 17.5 12.1 9.4 59 4.2 NW 28 44 15 24 - - 0.0
18/12:00pm 17.5 11.5 10.1 62 3.9 NNW 32 44 17 24 - - 0.0
18/11:30am 17.1 12.2 9.8 62 3.8 NNW 26 43 14 23 - - 0.0
18/11:00am 16.2 12.5 10.3 68 3.1 NNW 20 32 11 17 - - 0.0
18/10:30am 15.4 11.7 10.0 70 2.8 NW 20 30 11 16 - - 0.0
18/10:00am 15.3 13.5 12.1 81 1.7 NNW 13 26 7 14 - - 0.0
18/09:30am 14.8 13.6 12.8 88 1.1 NNW 11 17 6 9 - - 0.0
18/09:00am 14.4 14.2 13.0 91 0.8 NNW 6 11 3 6 - - 0.6
18/08:30am 13.3 12.8 12.5 95 0.4 WNW 7 11 4 6 - - 0.6
18/08:00am 12.8 12.2 12.2 96 0.3 NNW 7 9 4 5 - - 0.6
18/07:30am 12.2 11.5 11.4 95 0.4 NNW 6 6 3 3 - - 0.6
18/07:00am 12.2 11.3 11.4 95 0.4 WNW 7 9 4 5 - - 0.6
18/06:30am 12.3 11.6 11.5 95 0.4 NW 6 9 3 5 - - 0.6
18/06:00am 12.5 11.9 11.6 94 0.5 NNW 6 9 3 5 - - 0.6
18/05:30am 12.7 11.7 11.1 90 0.8 WNW 7 9 4 5 - - 0.4
18/05:00am 12.7 12.2 10.9 89 0.9 NW 4 4 2 2 - - 0.0
18/04:30am 12.6 12.9 10.8 89 0.9 CALM 0 0 0 0 - - 0.0
18/04:00am 12.4 11.8 10.5 88 1.0 NW 4 6 2 3 - - 0.0
18/03:30am 12.7 12.1 10.4 86 1.2 NW 4 6 2 3 - - 0.0
18/03:00am 12.1 11.8 10.2 88 1.0 SW 2 6 1 3 - - 0.0
18/02:30am 12.5 12.7 10.4 87 1.1 CALM 0 2 0 1 - - 0.0
18/02:00am 12.4 12.5 10.3 87 1.1 CALM 0 0 0 0 - - 0.0
18/01:30am 12.4 12.1 10.0 85 1.2 NNW 2 4 1 2 - - 0.0
18/01:00am 12.4 12.5 10.0 85 1.2 CALM 0 0 0 0 - - 0.0
18/12:30am 12.5 12.4 9.5 82 1.5 CALM 0 0 0 0 - - 0.0
18/12:00am 12.6 12.2 9.8 83 1.4 W 2 4 1 2 - - 0.0
 
Date/Time
EST
Temp
°C
App
Temp
°C
Dew
Point
Rel
Hum
%
Delta-T
°C
Wind Press
QNH
hPa
Press
MSL
hPa
Rain
since 9 am
mm
Dir
 
Spd
km/h
Gust
km/h
Spd
kts
Gust
kts
17/11:30pm 12.7 11.9 9.7 82 1.5 NW 4 6 2 3 - - 0.0
17/11:00pm 13.1 11.9 9.7 80 1.7 NW 6 9 3 5 - - 0.0
17/10:30pm 13.3 12.1 9.7 79 1.8 NW 6 9 3 5 - - 0.0
17/10:00pm 13.3 12.1 9.5 78 1.9 NW 6 11 3 6 - - 0.0
17/09:30pm 13.5 11.7 9.4 76 2.1 NW 9 13 5 7 - - 0.0
17/09:00pm 13.6 11.4 9.5 76 2.1 NW 11 17 6 9 - - 0.0
17/08:30pm 13.6 12.3 9.8 78 2.0 NW 7 11 4 6 - - 0.0
17/08:00pm 13.3 11.9 9.5 78 1.9 NW 7 13 4 7 - - 0.0
17/07:30pm 13.2 11.8 9.5 78 1.9 NW 7 11 4 6 - - 0.0
17/07:00pm 13.1 10.9 9.5 79 1.8 NW 11 17 6 9 - - 0.0
17/06:30pm 13.8 11.2 9.3 74 2.3 N 13 17 7 9 - - 0.0
17/06:00pm 13.8 11.1 9.0 73 2.4 N 13 20 7 11 - - 0.0
17/05:30pm 14.1 11.4 9.1 72 2.5 NNW 13 19 7 10 - - 0.0
17/05:00pm 14.8 12.2 9.2 69 2.9 NNW 13 20 7 11 - - 0.0
17/04:30pm 15.5 11.5 9.2 66 3.2 NNW 20 28 11 15 - - 0.0
17/04:00pm 16.0 11.7 9.4 65 3.4 NNW 22 30 12 16 - - 0.0
17/03:30pm 16.5 12.2 9.4 63 3.7 NNW 22 33 12 18 - - 0.0
17/03:00pm 16.4 12.2 9.8 65 3.5 NNW 22 32 12 17 - - 0.0
17/02:30pm 16.3 12.2 8.8 61 3.8 N 20 30 11 16 - - 0.0
17/02:00pm 16.8 12.4 8.8 59 4.1 NNW 22 32 12 17 - - 0.0
17/01:30pm 16.9 12.9 8.3 57 4.4 N 19 30 10 16 - - 0.0
17/01:00pm 17.6 13.3 9.2 58 4.4 N 22 33 12 18 - - 0.0
17/12:30pm 17.0 13.3 9.4 61 4.0 NNW 19 26 10 14 - - 0.0
17/12:00pm 17.2 13.4 9.1 59 4.2 NNW 19 26 10 14 - - 0.0
17/11:30am 17.0 13.4 9.9 63 3.7 NNW 19 26 10 14 - - 0.0
17/11:00am 15.9 12.2 10.0 68 3.1 NNW 20 28 11 15 - - 0.0
17/10:30am 15.6 12.2 10.6 72 2.6 NNW 19 28 10 15 - - 0.0
17/10:00am 13.7 12.3 10.9 83 1.5 N 9 15 5 8 - - 0.0
17/09:30am 12.1 11.0 9.8 86 1.2 NW 6 9 3 5 - - 0.0
17/09:00am 10.3 10.0 8.6 89 0.8 CALM 0 4 0 2 - - 0.0
17/08:30am 9.2 8.7 8.0 92 0.6 CALM 0 4 0 2 - - 0.0
17/08:00am 7.6 6.1 6.9 95 0.3 N 4 7 2 4 - - 0.0
17/07:30am 4.8 3.5 3.9 94 0.4 CALM 0 0 0 0 - - 0.0
17/07:00am 4.9 3.6 4.0 94 0.4 CALM 0 0 0 0 - - 0.0
17/06:30am 4.9 3.2 3.9 93 0.4 E 2 6 1 3 - - 0.0
17/06:00am 4.8 3.5 3.9 94 0.4 CALM 0 0 0 0 - - 0.0
17/05:30am 4.8 3.4 3.8 93 0.4 CALM 0 0 0 0 - - 0.0
17/05:00am 4.9 3.6 3.9 93 0.4 CALM 0 0 0 0 - - 0.0
17/04:30am 5.1 3.4 3.8 91 0.5 ESE 2 2 1 1 - - 0.0
17/04:00am 5.5 3.5 4.2 91 0.6 E 4 6 2 3 - - 0.0
17/03:30am 5.8 4.6 4.4 91 0.6 CALM 0 0 0 0 - - 0.0
17/03:00am 5.7 4.4 4.3 91 0.6 CALM 0 0 0 0 - - 0.0
17/02:30am 6.5 5.4 5.1 91 0.6 CALM 0 0 0 0 - - 0.0
17/02:00am 6.4 5.2 4.6 88 0.8 CALM 0 0 0 0 - - 0.0
17/01:30am 7.8 6.2 6.3 90 0.7 ENE 4 6 2 3 - - 0.0
17/01:00am 7.9 7.0 6.0 88 0.9 CALM 0 0 0 0 - - 0.0
17/12:30am 8.7 7.2 7.0 89 0.8 NNW 4 6 2 3 - - 0.0
17/12:00am 8.0 7.2 6.5 90 0.7 CALM 0 2 0 1 - - 0.0
 
Date/Time
EST
Temp
°C
App
Temp
°C
Dew
Point
Rel
Hum
%
Delta-T
°C
Wind Press
QNH
hPa
Press
MSL
hPa
Rain
since 9 am
mm
Dir
 
Spd
km/h
Gust
km/h
Spd
kts
Gust
kts
16/11:30pm 9.2 8.2 7.3 88 0.9 NNE 2 6 1 3 - - 0.0
16/11:00pm 9.1 8.0 7.1 87 0.9 N 2 4 1 2 - - 0.0
16/10:30pm 8.8 7.8 5.7 81 1.4 CALM 0 0 0 0 - - 0.0
16/10:00pm 9.5 7.9 6.2 80 1.5 WNW 4 4 2 2 - - 0.0
16/09:30pm 9.9 7.7 5.1 72 2.2 W 6 6 3 3 - - 0.0
16/09:00pm 11.5 9.7 5.4 66 2.8 N 4 6 2 3 - - 0.0
16/08:30pm 10.7 8.4 5.7 71 2.3 WNW 7 9 4 5 - - 0.0
16/08:00pm 11.1 9.3 5.2 67 2.7 WNW 4 7 2 4 - - 0.0
16/07:30pm 12.2 9.8 5.1 62 3.3 NNW 7 13 4 7 - - 0.0
16/07:00pm 12.9 10.1 5.1 59 3.6 NNW 9 17 5 9 - - 0.0
16/06:30pm 13.5 10.8 5.7 59 3.7 NNW 9 15 5 8 - - 0.0
16/06:00pm 14.4 10.8 5.2 54 4.3 NW 13 20 7 11 - - 0.0
16/05:30pm 15.6 11.8 5.8 52 4.7 NNW 15 19 8 10 - - 0.0
16/05:00pm 17.7 14.9 5.3 44 6.0 WNW 9 13 5 7 - - 0.0
16/04:30pm 18.9 15.7 5.0 40 6.7 WNW 11 17 6 9 - - 0.0
16/04:00pm 19.7 16.8 4.6 37 7.3 WNW 9 15 5 8 - - 0.0
16/03:30pm 19.6 16.7 4.5 37 7.3 NNW 9 13 5 7 - - 0.0
16/03:00pm 19.8 16.5 4.7 37 7.3 NNW 11 17 6 9 - - 0.0
16/02:30pm 19.6 15.7 5.3 39 7.0 N 15 20 8 11 - - 0.0
16/02:00pm 19.4 15.6 5.8 41 6.7 NNW 15 24 8 13 - - 0.0
16/01:30pm 19.8 17.0 6.9 43 6.5 NNW 11 19 6 10 - - 0.0
16/01:00pm 19.3 16.2 7.4 46 6.0 NNW 13 20 7 11 - - 0.0
16/12:30pm 19.1 16.8 5.9 42 6.5 WSW 7 15 4 8 - - 0.0
16/12:00pm 19.9 17.6 4.8 37 7.3 SW 6 13 3 7 - - 0.0
16/11:30am 20.0 18.2 5.6 39 7.1 ENE 4 6 2 3 - - 0.0
16/11:00am 18.8 16.7 6.0 43 6.3 WSW 6 13 3 7 - - 0.0
16/10:30am 17.9 15.9 6.1 46 5.8 SSW 6 11 3 6 - - 0.0
16/10:00am 16.8 15.6 9.7 63 3.7 N 6 9 3 5 - - 0.0
16/09:30am 16.1 15.1 10.4 69 3.0 N 6 9 3 5 - - 0.0
16/09:00am 15.0 14.1 11.2 78 2.0 N 7 11 4 6 - - 0.0
16/08:30am 12.9 12.3 12.3 96 0.3 NW 7 9 4 5 - - 0.0
16/08:00am 11.9 11.6 11.4 97 0.3 NW 4 7 2 4 - - 0.0
16/07:30am 11.6 11.2 11.1 97 0.3 N 4 6 2 3 - - 0.0
16/07:00am 11.3 10.4 10.7 96 0.3 WNW 6 6 3 3 - - 0.0
16/06:30am 12.2 11.6 11.6 96 0.3 NNW 6 7 3 4 - - 0.0
16/06:00am 12.8 12.2 12.2 96 0.3 NNW 7 9 4 5 - - 0.0
16/05:30am 12.9 12.4 12.1 95 0.4 NNW 6 7 3 4 - - 0.0
16/05:00am 13.8 13.0 13.0 95 0.4 NW 9 11 5 6 - - 0.0
16/04:30am 13.9 13.5 13.1 95 0.4 NW 7 11 4 6 - - 0.0
16/04:00am 14.4 14.2 13.6 95 0.4 NW 7 11 4 6 - - 0.0
16/03:30am 14.5 13.7 13.9 96 0.3 NW 11 15 6 8 - - 0.0
16/03:00am 14.8 14.4 14.2 96 0.3 NW 9 15 5 8 - - 0.0
16/02:30am 14.0 13.6 12.9 93 0.6 NW 7 9 4 5 - - 0.0
16/02:00am 14.8 14.8 13.5 92 0.7 NW 6 11 3 6 - - 0.0
16/01:30am 15.0 14.1 13.7 92 0.7 NW 11 15 6 8 - - 0.0
16/01:00am 15.0 14.9 13.9 93 0.6 NW 7 11 4 6 - - 0.0
16/12:30am 15.3 15.9 14.3 94 0.6 NW 4 6 2 3 - - 0.0
16/12:00am 15.7 16.1 14.7 94 0.6 N 6 7 3 4 - - 0.0
 
Date/Time
EST
Temp
°C
App
Temp
°C
Dew
Point
Rel
Hum
%
Delta-T
°C
Wind Press
QNH
hPa
Press
MSL
hPa
Rain
since 9 am
mm
Dir
 
Spd
km/h
Gust
km/h
Spd
kts
Gust
kts
15/11:30pm 15.5 16.5 14.2 92 0.7 N 2 4 1 2 - - 0.0
15/11:00pm 15.9 16.6 14.6 92 0.7 NW 4 4 2 2 - - 0.0
15/10:30pm 15.8 16.6 14.7 93 0.6 NW 4 6 2 3 - - 0.0
15/10:00pm 15.5 16.2 14.4 93 0.6 NNW 4 6 2 3 - - 0.0
15/09:30pm 15.5 15.8 14.4 93 0.6 NNW 6 7 3 4 - - 0.0
15/09:00pm 15.3 15.4 14.0 92 0.7 NNW 6 7 3 4 - - 0.0
15/08:30pm 15.0 15.0 13.7 92 0.7 NNW 6 7 3 4 - - 0.0
15/08:00pm 15.5 15.3 13.7 89 1.0 NNW 7 11 4 6 - - 0.0
15/07:30pm 15.9 15.7 13.7 87 1.2 NW 7 9 4 5 - - 0.0
15/07:00pm 16.4 16.2 13.7 84 1.5 NNW 7 9 4 5 - - 0.0
15/06:30pm 17.0 17.0 13.7 81 1.9 NNW 6 7 3 4 - - 0.0
15/06:00pm 17.4 17.3 13.9 80 2.0 NNW 7 9 4 5 - - 0.0
15/05:30pm 18.6 18.5 13.9 74 2.7 NNW 7 11 4 6 - - 0.0

Other Formats:

Comma delimited format used in spreadsheet applications
http://www.bom.gov.au/fwo/IDT60801/IDT60801.94969.axf

JavaScript Object Notation format (JSON) in row-major order
http://www.bom.gov.au/fwo/IDT60801/IDT60801.94969.json